Florence Regional Airport
KFLO : now visible

Airfield :











YOU CAN JOIN US ON...

 
LOGIN :

Register | Disclaimer

   EN    FR    IT 

 









Legend :    VFR   Marginal VFR   IFR   Intensive IFR   Very Intensive IFR
Visi :
Ceiling :
>= 8 km
>= 3000ft
5 to 8 km
1000 to 3000 ft
1500m to 5 km
500 to 1000 ft
800 to 1500m
200 to 500 ft
< 800m
< 200 ft
Symbols :   Thunderstorms  Fog  Heavy snow  Heavy precipitations  Wind > 20 kt







- Airport Elevation : 146 ft
- IATA code : FLO


KFLO - Florence Regional

CURRENT METAR :
  • 181753Z 22011KT 10SM FEW050 27/14 A3004 RMK AO2 SLP168 T02670139 10272 20144 58015

EXPIRED METARs :
  • 181653Z 20011KT 10SM BKN045 27/15 A3006 RMK AO2 SLP176 T02670150
  • 181553Z 21013KT 10SM SCT039 24/15 A3008 RMK AO2 SLP183 T02440150

TAF KFLO
Valid from the 18 at 18:00 until the 19 at 18:00 UTC


181740Z 1818/1918 18010KT P6SM FEW120
FM182000 18011G19KT P6SM SCT120
FM182300 17011KT P6SM SCT120
FM190200 17010KT P6SM BKN150
FM190800 17011KT P6SM BKN015
FM191000 17013KT P6SM BKN030
FM191100 18012G20KT P6SM BKN025
FM191200 18014KT 6SM -SHRA OVC030
FM191400 18015G24KT 6SM -SHRA OVC025
KZJX FIR / North America



MET'MAP, your aeronautical weather chart ! - Copyright ORBIFLY December 2007 - Disclaimer

ORBIFLY MET'MAP TEAM :

Programming & Development : Alexandra Zaïnal
Concept & Development : Baudouin d'Aumeries
Co-Development & Prog : Marc-Olivier Méhu
Technical & hardware support : Manuel Goepfert

Contact : metmap@orbifly.com




SOURCES & CREDITS :

   NOAA       Earth
Advisory